Wednesday, October 17, 2018, 1:04 PM EDT
Back to Local

KAUG, Augusta State Airport

Location: Augusta, ME, United States Lat: 44.317
Local Time: 1:04 PM EDT (17:04 GMT) Lon: -69.8
Time Zone: US/Eastern Elev: 351 ft

Show me the last for .
Show Decoded

2018-10-17 12:53 METAR KAUG 171653Z AUTO 24008KT 10SM CLR 12/04 A2969 RMK AO2 SLP056 T01170044 =
2018-10-17 11:53 METAR KAUG 171553Z AUTO 22007KT 10SM FEW090 09/04 A2973 RMK AO2 RAE1456 SLP069
                 P0000 T00940044 =
2018-10-17 10:53 METAR KAUG 171453Z AUTO 21003KT 10SM -RA FEW040 BKN050 OVC080 07/05 A2977 RMK
                 AO2 SLP084 P0001 60002 T00670050 58022 =
2018-10-17 09:53 METAR KAUG 171353Z AUTO 19005KT 10SM -RA OVC045 06/04 A2979 RMK AO2 SLP092 P0000
                 T00610039 =
2018-10-17 08:53 METAR KAUG 171253Z AUTO 20004KT 10SM -RA SCT046 OVC055 05/03 A2982 RMK AO2
                 SLP100 P0001 T00500028 =
2018-10-17 07:53 METAR KAUG 171153Z AUTO 19003KT 10SM -RA BKN050 OVC060 04/02 A2983 RMK AO2 RAB50
                 SLP106 P0000 60000 T00440017 10044 20017 56016 =
2018-10-17 06:53 METAR KAUG 171053Z AUTO 18004KT 10SM BKN070 OVC080 04/02 A2985 RMK AO2 SLP109
                 T00390017 =
2018-10-17 05:53 METAR KAUG 170953Z AUTO 20003KT 10SM SCT080 OVC095 04/01 A2986 RMK AO2 SLP114
                 T00390011 =
2018-10-17 04:53 METAR KAUG 170853Z AUTO 18004KT 10SM OVC095 04/02 A2988 RMK AO2 SLP121 T00390017
                 56015 =
2018-10-17 03:53 METAR KAUG 170753Z AUTO 20004KT 10SM BKN120 04/01 A2989 RMK AO2 SLP123 T00390006
                 =
2018-10-17 02:53 METAR KAUG 170653Z AUTO 20004KT 10SM CLR 03/M01 A2990 RMK AO2 SLP127 T00281006 =
2018-10-17 01:53 METAR KAUG 170553Z AUTO 16003KT 10SM CLR 02/01 A2993 RMK AO2 SLP136 T00220006
                 10061 20017 58008 =
2018-10-16 23:53 METAR KAUG 170353Z AUTO 19003KT 10SM CLR 03/M01 A2995 RMK AO2 SLP144 T00331011 =
2018-10-16 22:53 METAR KAUG 170253Z AUTO 19003KT 10SM CLR 02/M01 A2995 RMK AO2 SLP145 T00221011
                 53002 =
2018-10-16 21:53 METAR KAUG 170153Z AUTO 21003KT 10SM CLR 04/M02 A2994 RMK AO2 SLP142 T00441017 =
2018-10-16 20:53 METAR KAUG 170053Z AUTO 00000KT 10SM CLR 06/M03 A2995 RMK AO2 SLP143 T00561028 =
2018-10-16 19:53 METAR KAUG 162353Z AUTO 32007KT 10SM CLR 06/M02 A2995 RMK AO2 SLP143 T00611022
                 10117 20061 51014 =
2018-10-16 18:53 METAR KAUG 162253Z AUTO 35006KT 10SM CLR 08/M03 A2994 RMK AO2 SLP142 T00781028 =
2018-10-16 17:53 METAR KAUG 162153Z AUTO 32007KT 10SM CLR 09/M02 A2992 RMK AO2 SLP136 T00891022 =
2018-10-16 16:53 METAR KAUG 162053Z AUTO 29007KT 10SM CLR 11/M03 A2990 RMK AO2 SLP128 T01061028
                 51008 =
2018-10-16 15:53 METAR KAUG 161953Z AUTO 28010G17KT 10SM CLR 12/M02 A2990 RMK AO2 SLP127
                 T01171022 =
2018-10-16 14:53 METAR KAUG 161853Z AUTO 27008G15KT 10SM CLR 11/M03 A2989 RMK AO2 SLP121
                 T01111028 =
2018-10-16 13:53 METAR KAUG 161753Z AUTO 29009G27KT 10SM CLR 11/M02 A2988 RMK AO2 PK WND
                 30027/1744 SLP119 T01111022 10111 20061 58009 =

Support USWX by starting your Amazon purchase here.